createdAt,value
2019-03-05T00:00:45.472Z,3.42
2019-03-05T00:03:15.977Z,3.50
2019-03-05T00:05:46.340Z,3.44
2019-03-05T00:08:16.541Z,3.38
2019-03-05T00:10:46.807Z,3.32
2019-03-05T00:13:17.189Z,3.44
2019-03-05T00:15:48.889Z,3.36
2019-03-05T00:18:19.172Z,3.57
2019-03-05T00:20:49.410Z,3.53
2019-03-05T00:23:21.665Z,3.50
2019-03-05T00:25:51.894Z,3.45
2019-03-05T00:28:29.721Z,3.50
2019-03-05T00:31:01.642Z,3.50
2019-03-05T00:33:36.336Z,3.65
2019-03-05T00:36:14.342Z,3.45
2019-03-05T00:38:56.236Z,3.66
2019-03-05T00:41:40.229Z,3.64
2019-03-05T00:44:27.283Z,3.71
2019-03-05T00:47:08.439Z,3.67
2019-03-05T00:49:40.300Z,3.59
2019-03-05T00:52:29.115Z,3.71
2019-03-05T00:55:00.956Z,3.79
2019-03-05T00:57:33.944Z,3.83
2019-03-05T01:00:18.148Z,3.86
2019-03-05T01:03:05.551Z,3.87
2019-03-05T01:05:43.565Z,3.97
2019-03-05T01:08:13.854Z,3.92
2019-03-05T01:10:44.122Z,3.96
2019-03-05T01:13:15.733Z,3.92
2019-03-05T01:15:45.944Z,4.05
2019-03-05T01:18:16.162Z,4.23
2019-03-05T01:20:48.094Z,4.29
2019-03-05T01:23:18.373Z,4.11
2019-03-05T01:25:50.327Z,4.23
2019-03-05T01:28:20.697Z,4.21
2019-03-05T01:31:07.760Z,4.16
2019-03-05T01:33:39.638Z,4.22
2019-03-05T01:36:11.672Z,4.36
2019-03-05T01:38:43.552Z,4.38
2019-03-05T01:41:14.046Z,4.29
2019-03-05T01:43:44.306Z,4.21
2019-03-05T01:46:14.466Z,4.25
2019-03-05T01:48:44.626Z,4.31
2019-03-05T01:51:14.779Z,4.36
2019-03-05T01:53:45.328Z,4.46
2019-03-05T01:56:15.597Z,4.49
2019-03-05T01:58:45.815Z,4.27
2019-03-05T02:01:16.353Z,4.38
2019-03-05T02:03:46.613Z,4.54
2019-03-05T02:06:16.864Z,4.53
2019-03-05T02:08:47.102Z,4.45
2019-03-05T02:11:17.311Z,4.50
2019-03-05T02:13:47.551Z,4.69
2019-03-05T02:16:17.711Z,4.56
2019-03-05T02:18:47.865Z,4.49
2019-03-05T02:21:18.009Z,4.50
2019-03-05T02:23:53.022Z,4.51
2019-03-05T02:26:41.763Z,4.63
2019-03-05T02:29:22.757Z,4.70
2019-03-05T02:31:54.660Z,4.48
2019-03-05T02:34:35.612Z,4.65
2019-03-05T02:37:25.846Z,4.68
2019-03-05T02:40:00.798Z,4.55
2019-03-05T02:42:44.758Z,4.68
2019-03-05T02:45:34.810Z,4.71
2019-03-05T02:48:09.666Z,4.63
2019-03-05T02:50:44.339Z,4.70
2019-03-05T02:53:16.775Z,4.76
2019-03-05T02:56:05.063Z,4.64
2019-03-05T02:58:34.762Z,4.85
2019-03-05T03:01:12.750Z,4.65
2019-03-05T03:03:44.944Z,4.67
2019-03-05T03:06:17.918Z,4.75
2019-03-05T03:08:48.258Z,4.96
2019-03-05T03:11:18.503Z,4.73
2019-03-05T03:13:48.760Z,4.90
2019-03-05T03:16:19.018Z,4.70
2019-03-05T03:18:49.228Z,4.91
2019-03-05T03:21:19.508Z,4.76
2019-03-05T03:23:49.681Z,4.85
2019-03-05T03:26:19.850Z,5.04
2019-03-05T03:28:50.131Z,4.72
2019-03-05T03:31:20.385Z,4.71
2019-03-05T03:33:50.775Z,4.75
2019-03-05T03:36:21.019Z,4.69
2019-03-05T03:38:51.314Z,4.88
2019-03-05T03:41:21.615Z,4.42
2019-03-05T03:43:52.012Z,4.71
2019-03-05T03:46:22.211Z,4.72
2019-03-05T03:48:52.507Z,4.74
2019-03-05T03:51:22.709Z,4.79
2019-03-05T03:53:53.605Z,4.70
2019-03-05T03:56:24.114Z,4.66
2019-03-05T03:58:54.409Z,4.70
2019-03-05T04:01:25.174Z,4.78
2019-03-05T04:03:55.466Z,4.43
2019-03-05T04:06:25.762Z,4.36
2019-03-05T04:08:56.090Z,4.35
2019-03-05T04:11:26.319Z,4.41
2019-03-05T04:13:59.518Z,4.32
2019-03-05T04:16:28.513Z,4.52
2019-03-05T04:19:01.592Z,4.37
2019-03-05T04:21:31.838Z,4.48
2019-03-05T04:24:02.049Z,4.44
2019-03-05T04:26:33.227Z,4.39
2019-03-05T04:29:03.542Z,4.51
2019-03-05T04:31:34.176Z,4.51
2019-03-05T04:34:04.465Z,4.56
2019-03-05T04:36:34.722Z,4.49
2019-03-05T04:39:06.390Z,4.43
2019-03-05T04:41:43.469Z,4.45
2019-03-05T04:44:15.521Z,4.17
2019-03-05T04:46:47.343Z,4.45
2019-03-05T04:49:38.531Z,4.52
2019-03-05T04:52:12.254Z,4.46
2019-03-05T04:54:43.554Z,4.62
2019-03-05T04:57:14.822Z,4.59
2019-03-05T04:59:45.027Z,4.64
2019-03-05T05:02:24.200Z,4.77
2019-03-05T05:04:51.979Z,4.94
2019-03-05T05:07:27.078Z,4.75
2019-03-05T05:09:57.462Z,4.79
2019-03-05T05:12:27.881Z,4.70
2019-03-05T05:14:58.712Z,4.51
2019-03-05T05:17:29.022Z,4.53
2019-03-05T05:20:00.765Z,4.45
2019-03-05T05:22:32.335Z,4.55
2019-03-05T05:25:08.477Z,4.64
2019-03-05T05:27:41.652Z,4.66
2019-03-05T05:30:43.608Z,4.79
2019-03-05T05:33:15.555Z,4.63
2019-03-05T05:35:46.497Z,4.77
2019-03-05T05:38:19.542Z,4.56
2019-03-05T05:40:52.483Z,4.58
2019-03-05T05:43:27.043Z,4.80
2019-03-05T05:45:57.316Z,4.71
2019-03-05T05:48:27.556Z,4.72
2019-03-05T05:50:57.852Z,4.94
2019-03-05T05:53:28.290Z,4.97
2019-03-05T05:55:58.954Z,5.02
2019-03-05T05:58:29.231Z,4.87
2019-03-05T06:01:01.917Z,5.03
2019-03-05T06:03:32.246Z,5.48
2019-03-05T06:06:02.449Z,5.42
2019-03-05T06:08:32.801Z,5.44
2019-03-05T06:11:03.053Z,5.78
2019-03-05T06:13:35.363Z,6.04
2019-03-05T06:16:05.586Z,5.76
2019-03-05T06:18:35.811Z,6.61
2019-03-05T06:21:05.976Z,6.68
2019-03-05T06:23:36.209Z,6.80
2019-03-05T06:26:08.688Z,6.64
2019-03-05T06:28:38.255Z,6.10
2019-03-05T06:31:08.469Z,5.88
2019-03-05T06:33:38.782Z,6.17
2019-03-05T06:36:10.902Z,6.20
2019-03-05T06:38:41.251Z,6.32
2019-03-05T06:41:11.734Z,6.37
2019-03-05T06:43:42.000Z,6.28
2019-03-05T06:46:12.293Z,6.18
2019-03-05T06:48:42.595Z,6.44
2019-03-05T06:51:14.125Z,6.66
2019-03-05T06:53:46.346Z,6.78
2019-03-05T06:56:16.595Z,6.76
2019-03-05T06:58:46.906Z,6.66
2019-03-05T07:01:17.504Z,6.61
2019-03-05T07:03:48.137Z,6.56
2019-03-05T07:06:36.584Z,6.71
2019-03-05T07:09:08.436Z,6.69
2019-03-05T07:11:40.332Z,6.93
2019-03-05T07:14:15.304Z,6.97
2019-03-05T07:17:05.720Z,7.07
2019-03-05T07:19:37.717Z,7.02
2019-03-05T07:22:12.589Z,7.21
2019-03-05T07:24:46.320Z,7.48
2019-03-05T07:27:17.937Z,7.38
2019-03-05T07:29:48.236Z,7.61
2019-03-05T07:32:19.626Z,7.68
2019-03-05T07:34:51.755Z,7.73
2019-03-05T07:37:22.090Z,7.95
2019-03-05T07:39:52.314Z,8.23
2019-03-05T07:42:22.724Z,8.57
2019-03-05T07:44:53.163Z,8.34
2019-03-05T07:47:23.465Z,8.24
2019-03-05T07:49:53.729Z,8.28
2019-03-05T07:52:24.348Z,8.12
2019-03-05T07:54:54.584Z,8.38
2019-03-05T07:57:24.867Z,8.38
2019-03-05T07:59:55.095Z,8.27
2019-03-05T08:02:25.693Z,8.62
2019-03-05T08:04:56.035Z,8.77
2019-03-05T08:07:26.491Z,8.41
2019-03-05T08:09:58.680Z,8.56
2019-03-05T08:12:30.503Z,8.53
2019-03-05T08:15:05.378Z,8.42
2019-03-05T08:17:35.569Z,8.45
2019-03-05T08:20:07.650Z,8.47
2019-03-05T08:22:37.937Z,8.47
2019-03-05T08:25:09.727Z,8.77
2019-03-05T08:27:40.118Z,8.85
2019-03-05T08:30:14.537Z,8.60
2019-03-05T08:32:43.804Z,8.84
2019-03-05T08:35:14.027Z,9.09
2019-03-05T08:37:44.340Z,9.07
2019-03-05T08:40:15.228Z,9.29
2019-03-05T08:42:47.343Z,9.21
2019-03-05T08:45:28.442Z,9.51
2019-03-05T08:47:49.582Z,9.49
2019-03-05T08:50:20.274Z,9.63
2019-03-05T08:52:50.791Z,9.45
2019-03-05T08:55:21.160Z,9.73
2019-03-05T08:57:51.475Z,9.74
2019-03-05T09:00:21.820Z,9.62
2019-03-05T09:02:53.164Z,9.84
2019-03-05T09:05:23.365Z,10.09
2019-03-05T09:07:53.598Z,10.23
2019-03-05T09:10:27.273Z,10.11
2019-03-05T09:12:57.626Z,10.21
2019-03-05T09:15:28.098Z,10.14
2019-03-05T09:17:58.412Z,10.27
2019-03-05T09:20:28.749Z,10.28
2019-03-05T09:22:59.131Z,10.41
2019-03-05T09:25:29.531Z,10.51
2019-03-05T09:28:00.255Z,10.44
2019-03-05T09:30:30.612Z,10.70
2019-03-05T09:33:01.315Z,10.72
2019-03-05T09:35:31.790Z,10.89
2019-03-05T09:38:02.077Z,11.11
2019-03-05T09:40:32.791Z,11.40
2019-03-05T09:43:03.098Z,10.95
2019-03-05T09:45:33.369Z,11.18
2019-03-05T09:48:03.753Z,11.19
2019-03-05T09:50:34.041Z,11.16
2019-03-05T09:53:04.727Z,11.08
2019-03-05T09:55:35.403Z,11.40
2019-03-05T09:58:08.261Z,11.39
2019-03-05T10:00:38.007Z,11.40
2019-03-05T10:03:08.526Z,11.21
2019-03-05T10:05:38.757Z,11.48
2019-03-05T10:08:09.072Z,11.27
2019-03-05T10:10:39.392Z,11.34
2019-03-05T10:13:09.785Z,11.69
2019-03-05T10:15:40.046Z,11.90
2019-03-05T10:18:12.926Z,11.80
2019-03-05T10:20:42.223Z,12.06
2019-03-05T10:23:12.619Z,11.73
2019-03-05T10:25:43.030Z,12.00
2019-03-05T10:28:14.043Z,12.32
2019-03-05T10:30:44.595Z,12.26
2019-03-05T10:33:16.948Z,12.18
2019-03-05T10:35:47.477Z,12.17
2019-03-05T10:38:17.857Z,12.18
2019-03-05T10:40:49.823Z,12.25
2019-03-05T10:43:20.336Z,12.19
2019-03-05T10:45:50.737Z,12.30
2019-03-05T10:48:22.599Z,12.42
2019-03-05T10:50:52.941Z,12.50
2019-03-05T10:53:23.599Z,12.45
2019-03-05T10:55:53.861Z,12.36
2019-03-05T10:58:33.287Z,12.41
2019-03-05T11:00:57.468Z,12.25
2019-03-05T11:03:30.983Z,12.80
2019-03-05T11:06:01.310Z,12.90
2019-03-05T11:08:32.130Z,13.00
2019-03-05T11:11:12.625Z,12.64
2019-03-05T11:13:34.436Z,12.79
2019-03-05T11:16:05.352Z,12.90
2019-03-05T11:18:35.686Z,12.76
2019-03-05T11:21:06.221Z,12.79
2019-03-05T11:23:36.541Z,12.78
2019-03-05T11:26:06.907Z,12.91
2019-03-05T11:28:37.365Z,12.43
2019-03-05T11:31:07.810Z,13.05
2019-03-05T11:33:38.177Z,12.71
2019-03-05T11:36:08.514Z,12.66
2019-03-05T11:38:38.908Z,12.63
2019-03-05T11:41:09.324Z,12.37
2019-03-05T11:43:39.757Z,12.80
2019-03-05T11:46:11.068Z,13.10
2019-03-05T11:48:41.377Z,12.91
2019-03-05T11:51:11.792Z,12.85
2019-03-05T11:53:42.280Z,12.78
2019-03-05T11:56:12.560Z,12.81
2019-03-05T11:58:43.564Z,13.10
2019-03-05T12:01:15.645Z,13.04
2019-03-05T12:03:46.262Z,13.07
2019-03-05T12:06:16.599Z,12.94
2019-03-05T12:08:47.005Z,13.22
2019-03-05T12:11:17.232Z,13.22
2019-03-05T12:13:48.480Z,13.39
2019-03-05T12:16:19.003Z,13.35
2019-03-05T12:18:49.327Z,13.64
2019-03-05T12:21:19.577Z,13.75
2019-03-05T12:23:49.851Z,13.54
2019-03-05T12:26:20.161Z,13.59
2019-03-05T12:28:50.371Z,13.41
2019-03-05T12:31:20.635Z,13.35
2019-03-05T12:33:50.910Z,13.20
2019-03-05T12:36:21.134Z,13.18
2019-03-05T12:38:51.401Z,13.14
2019-03-05T12:41:21.748Z,12.97
2019-03-05T12:43:52.046Z,13.16
2019-03-05T12:46:22.303Z,13.00
2019-03-05T12:48:53.577Z,12.77
2019-03-05T12:51:24.126Z,12.70
2019-03-05T12:53:54.456Z,12.61
2019-03-05T12:56:24.756Z,12.58
2019-03-05T12:58:55.061Z,12.53
2019-03-05T13:01:25.647Z,12.57
2019-03-05T13:03:56.214Z,12.57
2019-03-05T13:06:26.427Z,12.63
2019-03-05T13:08:56.689Z,12.48
2019-03-05T13:11:26.871Z,12.43
2019-03-05T13:14:06.117Z,12.46
2019-03-05T13:16:29.055Z,12.53
2019-03-05T13:18:59.355Z,12.55
2019-03-05T13:21:30.787Z,12.51
2019-03-05T13:24:02.148Z,12.24
2019-03-05T13:26:32.702Z,12.30
2019-03-05T13:29:03.042Z,12.28
2019-03-05T13:31:38.603Z,12.32
2019-03-05T13:34:06.816Z,12.24
2019-03-05T13:36:37.080Z,12.24
2019-03-05T13:39:07.428Z,12.11
2019-03-05T13:41:39.259Z,12.22
2019-03-05T13:44:11.366Z,12.21
2019-03-05T13:46:41.719Z,12.11
2019-03-05T13:49:18.076Z,12.03
2019-03-05T13:52:04.546Z,12.17
2019-03-05T13:54:36.859Z,12.17
2019-03-05T13:57:20.938Z,12.32
2019-03-05T13:59:51.302Z,12.20
2019-03-05T14:02:26.315Z,12.21
2019-03-05T14:05:01.184Z,12.19
2019-03-05T14:07:51.311Z,12.10
2019-03-05T14:10:21.794Z,12.00
2019-03-05T14:12:52.241Z,12.04
2019-03-05T14:15:22.514Z,11.88
2019-03-05T14:17:53.051Z,11.87
2019-03-05T14:20:31.842Z,11.99
2019-03-05T14:22:56.971Z,11.90
2019-03-05T14:25:29.143Z,11.91
2019-03-05T14:27:59.676Z,11.96
2019-03-05T14:30:30.165Z,12.02
2019-03-05T14:33:00.952Z,11.96
2019-03-05T14:35:32.709Z,12.04
2019-03-05T14:38:03.074Z,11.94
2019-03-05T14:40:33.298Z,11.95
2019-03-05T14:43:03.554Z,11.99
2019-03-05T14:45:34.657Z,12.07
2019-03-05T14:48:06.533Z,11.83
2019-03-05T14:50:36.801Z,11.93
2019-03-05T14:53:07.420Z,11.88
2019-03-05T14:55:37.697Z,11.88
2019-03-05T14:58:10.214Z,11.86
2019-03-05T15:00:42.387Z,11.74
2019-03-05T15:03:13.325Z,11.74
2019-03-05T15:05:46.999Z,11.78
2019-03-05T15:08:21.159Z,11.74
2019-03-05T15:10:55.356Z,11.71
2019-03-05T15:13:32.361Z,11.68
2019-03-05T15:16:03.806Z,11.69
2019-03-05T15:18:34.239Z,11.71
2019-03-05T15:21:04.663Z,11.74
2019-03-05T15:23:35.205Z,11.72
2019-03-05T15:26:05.394Z,11.66
2019-03-05T15:28:35.773Z,11.53
2019-03-05T15:31:06.136Z,11.56
2019-03-05T15:33:40.388Z,11.52
2019-03-05T15:36:23.212Z,11.55
2019-03-05T15:38:45.907Z,11.54
2019-03-05T15:41:17.562Z,11.49
2019-03-05T15:43:48.058Z,11.43
2019-03-05T15:46:18.380Z,11.50
2019-03-05T15:48:48.769Z,11.54
2019-03-05T15:51:25.544Z,11.67
2019-03-05T15:54:00.288Z,11.63
2019-03-05T15:56:34.368Z,11.63
2019-03-05T15:59:05.842Z,11.69
2019-03-05T16:01:41.872Z,11.61
2019-03-05T16:04:12.166Z,11.64
2019-03-05T16:06:46.230Z,11.65
2019-03-05T16:09:26.386Z,11.62
2019-03-05T16:12:01.892Z,11.55
2019-03-05T16:14:36.315Z,11.55
2019-03-05T16:17:11.088Z,11.52
2019-03-05T16:19:49.015Z,11.52
2019-03-05T16:22:19.401Z,11.51
2019-03-05T16:24:49.693Z,11.47
2019-03-05T16:27:23.691Z,11.47
2019-03-05T16:29:55.794Z,11.39
2019-03-05T16:32:31.188Z,11.32
2019-03-05T16:35:19.468Z,11.25
2019-03-05T16:37:57.802Z,11.13
2019-03-05T16:40:35.785Z,10.89
2019-03-05T16:43:15.302Z,10.56
2019-03-05T16:45:56.109Z,10.35
2019-03-05T16:48:35.486Z,9.92
2019-03-05T16:51:07.346Z,9.58
2019-03-05T16:53:45.623Z,9.43
2019-03-05T16:56:25.575Z,9.23
2019-03-05T16:59:23.114Z,9.08
2019-03-05T17:02:05.843Z,8.93
2019-03-05T17:04:40.891Z,8.83
2019-03-05T17:07:26.735Z,8.75
2019-03-05T17:10:02.184Z,8.78
2019-03-05T17:12:36.573Z,8.71
2019-03-05T17:15:08.036Z,8.58
2019-03-05T17:17:39.931Z,8.55
2019-03-05T17:20:12.259Z,8.53
2019-03-05T17:22:46.336Z,8.35
2019-03-05T17:25:23.527Z,8.21
2019-03-05T17:27:56.912Z,8.29
2019-03-05T17:30:30.332Z,8.29
2019-03-05T17:33:00.875Z,8.24
2019-03-05T17:35:36.357Z,8.15
2019-03-05T17:38:15.986Z,8.17
2019-03-05T17:40:49.768Z,8.14
2019-03-05T17:43:24.733Z,8.07
2019-03-05T17:46:13.845Z,8.10
2019-03-05T17:48:44.757Z,8.05
2019-03-05T17:51:16.930Z,8.01
2019-03-05T17:53:54.390Z,8.00
2019-03-05T17:56:25.816Z,7.95
2019-03-05T17:58:58.092Z,8.05
2019-03-05T18:01:35.503Z,7.93
2019-03-05T18:04:13.382Z,7.96
2019-03-05T18:06:46.491Z,7.95
2019-03-05T18:09:20.359Z,7.96
2019-03-05T18:11:52.785Z,7.98
2019-03-05T18:14:27.187Z,7.95
2019-03-05T18:16:59.428Z,8.01
2019-03-05T18:19:30.011Z,8.05
2019-03-05T18:22:00.994Z,7.92
2019-03-05T18:24:33.325Z,7.86
2019-03-05T18:27:05.087Z,7.76
2019-03-05T18:29:37.854Z,7.85
2019-03-05T18:32:09.460Z,7.76
2019-03-05T18:34:40.036Z,7.62
2019-03-05T18:37:11.743Z,7.59
2019-03-05T18:39:44.468Z,7.64
2019-03-05T18:42:23.039Z,7.41
2019-03-05T18:44:52.704Z,7.48
2019-03-05T18:47:23.136Z,7.47
2019-03-05T18:49:53.774Z,7.34
2019-03-05T18:52:25.364Z,7.32
2019-03-05T18:54:55.787Z,7.34
2019-03-05T18:57:26.080Z,7.23
2019-03-05T18:59:56.482Z,7.21
2019-03-05T19:02:31.059Z,7.16
2019-03-05T19:05:01.843Z,7.21
2019-03-05T19:07:33.994Z,7.13
2019-03-05T19:10:07.367Z,7.09
2019-03-05T19:12:37.837Z,7.03
2019-03-05T19:15:10.076Z,7.12
2019-03-05T19:17:41.876Z,6.97
2019-03-05T19:20:15.649Z,6.97
2019-03-05T19:22:46.155Z,7.02
2019-03-05T19:25:18.400Z,6.88
2019-03-05T19:27:48.967Z,6.91
2019-03-05T19:30:21.288Z,6.80
2019-03-05T19:32:51.811Z,6.86
2019-03-05T19:35:23.644Z,7.00
2019-03-05T19:37:57.757Z,6.82
2019-03-05T19:40:44.945Z,6.73
2019-03-05T19:43:17.287Z,6.97
2019-03-05T19:46:00.583Z,7.03
2019-03-05T19:48:37.697Z,7.23
2019-03-05T19:51:12.048Z,7.24
2019-03-05T19:53:53.566Z,7.12
2019-03-05T19:56:26.294Z,7.24
2019-03-05T19:58:59.961Z,7.34
2019-03-05T20:01:32.181Z,7.16
2019-03-05T20:04:11.430Z,7.29
2019-03-05T20:06:38.612Z,7.13
2019-03-05T20:09:08.839Z,7.25
2019-03-05T20:11:40.966Z,7.23
2019-03-05T20:14:14.690Z,7.13
2019-03-05T20:16:46.620Z,7.25
2019-03-05T20:19:17.347Z,7.27
2019-03-05T20:21:47.706Z,7.37
2019-03-05T20:24:18.002Z,7.19
2019-03-05T20:26:48.490Z,7.20
2019-03-05T20:29:18.891Z,7.11
2019-03-05T20:31:49.103Z,7.52
2019-03-05T20:34:19.795Z,7.27
2019-03-05T20:36:51.915Z,7.31
2019-03-05T20:39:22.501Z,7.29
2019-03-05T20:41:53.146Z,7.30
2019-03-05T20:44:26.780Z,7.38
2019-03-05T20:46:57.744Z,7.37
2019-03-05T20:49:29.951Z,7.35
2019-03-05T20:52:00.407Z,7.30
2019-03-05T20:54:30.744Z,7.37
2019-03-05T20:57:02.067Z,7.41
2019-03-05T20:59:32.453Z,7.44
2019-03-05T21:02:03.266Z,7.18
2019-03-05T21:04:35.464Z,7.14
2019-03-05T21:07:05.592Z,7.07
2019-03-05T21:09:36.083Z,7.11
2019-03-05T21:12:06.415Z,6.96
2019-03-05T21:14:36.713Z,6.87
2019-03-05T21:17:07.071Z,6.88
2019-03-05T21:19:37.341Z,6.72
2019-03-05T21:22:07.651Z,6.65
2019-03-05T21:24:37.886Z,6.61
2019-03-05T21:27:08.231Z,6.58
2019-03-05T21:29:38.544Z,6.54
2019-03-05T21:32:08.914Z,6.57
2019-03-05T21:34:39.264Z,6.46
2019-03-05T21:37:09.681Z,6.36
2019-03-05T21:39:39.975Z,6.27
2019-03-05T21:42:10.221Z,6.31
2019-03-05T21:44:41.027Z,6.33
2019-03-05T21:47:11.244Z,6.32
2019-03-05T21:49:41.621Z,6.13
2019-03-05T21:52:12.119Z,6.25
2019-03-05T21:54:42.570Z,6.26
2019-03-05T21:57:13.003Z,6.15
2019-03-05T21:59:44.961Z,6.08
2019-03-05T22:02:16.722Z,6.01
2019-03-05T22:04:52.645Z,6.05
2019-03-05T22:07:25.688Z,5.94
2019-03-05T22:09:55.987Z,5.96
2019-03-05T22:12:26.450Z,5.77
2019-03-05T22:14:56.703Z,5.79
2019-03-05T22:17:26.900Z,5.91
2019-03-05T22:19:57.289Z,5.86
2019-03-05T22:22:27.718Z,5.89
2019-03-05T22:24:58.391Z,5.93
2019-03-05T22:27:29.039Z,5.78
2019-03-05T22:29:59.232Z,5.78
2019-03-05T22:32:29.490Z,5.81
2019-03-05T22:34:59.994Z,5.83
2019-03-05T22:37:30.350Z,5.78
2019-03-05T22:40:00.580Z,5.89
2019-03-05T22:42:30.892Z,6.00
2019-03-05T22:45:01.257Z,5.98
2019-03-05T22:47:32.902Z,6.06
2019-03-05T22:50:04.123Z,5.96
2019-03-05T22:52:34.680Z,6.07
2019-03-05T22:55:06.585Z,5.84
2019-03-05T22:57:36.970Z,5.89
2019-03-05T23:00:08.961Z,5.89
2019-03-05T23:02:40.926Z,5.88
2019-03-05T23:05:12.002Z,5.94
2019-03-05T23:07:42.841Z,5.90
2019-03-05T23:10:22.452Z,6.01
2019-03-05T23:12:54.257Z,6.08
2019-03-05T23:15:24.896Z,5.66
2019-03-05T23:17:55.825Z,5.54
2019-03-05T23:20:26.212Z,5.67
2019-03-05T23:22:56.504Z,5.59
2019-03-05T23:25:26.801Z,5.51
2019-03-05T23:27:57.177Z,5.62
2019-03-05T23:30:27.592Z,5.54
2019-03-05T23:32:58.001Z,5.37
2019-03-05T23:35:28.227Z,5.46
2019-03-05T23:37:58.412Z,5.43
2019-03-05T23:40:35.797Z,5.44
2019-03-05T23:43:22.015Z,5.53
2019-03-05T23:45:52.263Z,5.28
2019-03-05T23:48:23.363Z,5.28
2019-03-05T23:50:53.696Z,5.31
2019-03-05T23:53:24.500Z,5.13
2019-03-05T23:55:54.818Z,5.28
2019-03-05T23:58:25.226Z,5.35
